sensor_id;sensor_type;location;lat;lon;timestamp;pressure;altitude;pressure_sealevel;temperature;humidity
60897;BME280;46749;32.932;-117.130;2023-04-03T00:02:24;101574.06;;;14.70;55.97
60897;BME280;46749;32.932;-117.130;2023-04-03T00:04:50;101579.31;;;14.70;55.94
60897;BME280;46749;32.932;-117.130;2023-04-03T00:07:16;101563.63;;;14.70;55.51
60897;BME280;46749;32.932;-117.130;2023-04-03T00:09:43;101560.13;;;14.70;55.74
60897;BME280;46749;32.932;-117.130;2023-04-03T00:12:09;101558.38;;;14.70;55.67
60897;BME280;46749;32.932;-117.130;2023-04-03T00:14:36;101552.34;;;14.71;55.83
60897;BME280;46749;32.932;-117.130;2023-04-03T00:17:02;101546.22;;;14.71;55.74
60897;BME280;46749;32.932;-117.130;2023-04-03T00:19:28;101545.38;;;14.72;55.84
60897;BME280;46749;32.932;-117.130;2023-04-03T00:21:55;101552.34;;;14.71;55.67
60897;BME280;46749;32.932;-117.130;2023-04-03T00:24:21;101541.03;;;14.72;55.52
60897;BME280;46749;32.932;-117.130;2023-04-03T00:26:47;101547.13;;;14.71;55.92
60897;BME280;46749;32.932;-117.130;2023-04-03T00:29:13;101542.69;;;14.70;55.80
60897;BME280;46749;32.932;-117.130;2023-04-03T00:31:40;101534.03;;;14.71;55.89
60897;BME280;46749;32.932;-117.130;2023-04-03T00:34:06;101532.31;;;14.72;56.03
60897;BME280;46749;32.932;-117.130;2023-04-03T00:36:32;101528.81;;;14.71;55.83
60897;BME280;46749;32.932;-117.130;2023-04-03T00:38:59;101540.16;;;14.72;55.96
60897;BME280;46749;32.932;-117.130;2023-04-03T00:41:25;101541.03;;;14.72;55.93
60897;BME280;46749;32.932;-117.130;2023-04-03T00:43:51;101541.03;;;14.72;55.87
60897;BME280;46749;32.932;-117.130;2023-04-03T00:46:18;101520.97;;;14.71;55.90
60897;BME280;46749;32.932;-117.130;2023-04-03T00:48:45;101535.81;;;14.72;55.87
60897;BME280;46749;32.932;-117.130;2023-04-03T00:51:24;101526.25;;;14.73;56.02
60897;BME280;46749;32.932;-117.130;2023-04-03T00:53:56;101532.34;;;14.73;55.92
60897;BME280;46749;32.932;-117.130;2023-04-03T00:56:27;101538.47;;;14.74;55.90
60897;BME280;46749;32.932;-117.130;2023-04-03T00:59:01;101545.44;;;14.73;55.86
60897;BME280;46749;32.932;-117.130;2023-04-03T01:01:29;101527.13;;;14.73;55.71
60897;BME280;46749;32.932;-117.130;2023-04-03T01:03:58;101531.50;;;14.74;55.81
60897;BME280;46749;32.932;-117.130;2023-04-03T01:06:27;101526.28;;;14.74;55.58
60897;BME280;46749;32.932;-117.130;2023-04-03T01:08:55;101518.44;;;14.74;55.73
60897;BME280;46749;32.932;-117.130;2023-04-03T01:11:21;101528.88;;;14.74;55.99
60897;BME280;46749;32.932;-117.130;2023-04-03T01:13:48;101530.66;;;14.75;55.93
60897;BME280;46749;32.932;-117.130;2023-04-03T01:16:15;101524.56;;;14.75;55.79
60897;BME280;46749;32.932;-117.130;2023-04-03T01:18:42;101525.41;;;14.74;55.69
60897;BME280;46749;32.932;-117.130;2023-04-03T01:21:34;101526.28;;;14.74;55.65
60897;BME280;46749;32.932;-117.130;2023-04-03T01:24:12;101521.09;;;14.76;55.53
60897;BME280;46749;32.932;-117.130;2023-04-03T01:26:42;101521.09;;;14.76;55.73
60897;BME280;46749;32.932;-117.130;2023-04-03T01:29:09;101516.75;;;14.76;55.67
60897;BME280;46749;32.932;-117.130;2023-04-03T01:34:02;101516.75;;;14.76;55.80
60897;BME280;46749;32.932;-117.130;2023-04-03T01:36:30;101516.75;;;14.76;55.62
60897;BME280;46749;32.932;-117.130;2023-04-03T01:38:58;101511.50;;;14.76;55.80
60897;BME280;46749;32.932;-117.130;2023-04-03T01:41:25;101511.50;;;14.76;55.61
60897;BME280;46749;32.932;-117.130;2023-04-03T01:43:52;101506.28;;;14.76;55.74
60897;BME280;46749;32.932;-117.130;2023-04-03T01:46:19;101505.47;;;14.77;55.69
60897;BME280;46749;32.932;-117.130;2023-04-03T01:48:46;101503.66;;;14.76;55.67
60897;BME280;46749;32.932;-117.130;2023-04-03T01:51:13;101507.16;;;14.77;55.43
60897;BME280;46749;32.932;-117.130;2023-04-03T01:53:39;101494.94;;;14.76;55.71
60897;BME280;46749;32.932;-117.130;2023-04-03T01:56:06;101500.25;;;14.77;55.51
60897;BME280;46749;32.932;-117.130;2023-04-03T01:58:32;101510.72;;;14.77;55.68
60897;BME280;46749;32.932;-117.130;2023-04-03T02:00:58;101508.91;;;14.76;55.13
60897;BME280;46749;32.932;-117.130;2023-04-03T02:03:25;101513.31;;;14.77;55.39
60897;BME280;46749;32.932;-117.130;2023-04-03T02:05:51;101511.50;;;14.76;55.52
60897;BME280;46749;32.932;-117.130;2023-04-03T02:08:18;101507.16;;;14.77;55.60
60897;BME280;46749;32.932;-117.130;2023-04-03T02:10:47;101497.56;;;14.76;55.44
60897;BME280;46749;32.932;-117.130;2023-04-03T02:13:13;101497.63;;;14.77;55.52
60897;BME280;46749;32.932;-117.130;2023-04-03T02:15:39;101494.09;;;14.77;55.47
60897;BME280;46749;32.932;-117.130;2023-04-03T02:18:06;101490.59;;;14.76;55.37
60897;BME280;46749;32.932;-117.130;2023-04-03T02:20:32;101487.97;;;14.76;55.57
60897;BME280;46749;32.932;-117.130;2023-04-03T02:22:59;101491.44;;;14.75;55.65
60897;BME280;46749;32.932;-117.130;2023-04-03T02:25:26;101498.50;;;14.78;55.84
60897;BME280;46749;32.932;-117.130;2023-04-03T02:27:52;101485.38;;;14.76;55.63
60897;BME280;46749;32.932;-117.130;2023-04-03T02:30:18;101492.41;;;14.77;55.63
60897;BME280;46749;32.932;-117.130;2023-04-03T02:32:45;101498.44;;;14.76;55.71
60897;BME280;46749;32.932;-117.130;2023-04-03T02:35:11;101490.59;;;14.76;55.38
60897;BME280;46749;32.932;-117.130;2023-04-03T02:37:38;101492.31;;;14.76;55.53
60897;BME280;46749;32.932;-117.130;2023-04-03T02:40:05;101487.09;;;14.76;55.49
60897;BME280;46749;32.932;-117.130;2023-04-03T02:42:31;101484.47;;;14.76;55.44
60897;BME280;46749;32.932;-117.130;2023-04-03T02:44:57;101504.56;;;14.77;55.46
60897;BME280;46749;32.932;-117.130;2023-04-03T02:47:27;101516.75;;;14.76;55.36
60897;BME280;46749;32.932;-117.130;2023-04-03T02:49:53;101501.94;;;14.77;55.51
60897;BME280;46749;32.932;-117.130;2023-04-03T02:52:19;101501.06;;;14.76;55.70
60897;BME280;46749;32.932;-117.130;2023-04-03T02:54:46;101501.06;;;14.76;55.65
60897;BME280;46749;32.932;-117.130;2023-04-03T02:57:12;101505.41;;;14.76;55.59
60897;BME280;46749;32.932;-117.130;2023-04-03T02:59:38;101494.06;;;14.75;55.58
60897;BME280;46749;32.932;-117.130;2023-04-03T03:02:07;101499.28;;;14.75;55.64
60897;BME280;46749;32.932;-117.130;2023-04-03T03:04:34;101495.78;;;14.75;55.38
60897;BME280;46749;32.932;-117.130;2023-04-03T03:07:01;101503.63;;;14.75;55.41
60897;BME280;46749;32.932;-117.130;2023-04-03T03:09:27;101506.25;;;14.75;55.51
60897;BME280;46749;32.932;-117.130;2023-04-03T03:11:55;101511.47;;;14.75;55.59
60897;BME280;46749;32.932;-117.130;2023-04-03T03:14:22;101498.41;;;14.75;55.66
60897;BME280;46749;32.932;-117.130;2023-04-03T03:16:49;101497.50;;;14.74;55.62
60897;BME280;46749;32.932;-117.130;2023-04-03T03:19:15;101489.66;;;14.74;55.56
60897;BME280;46749;32.932;-117.130;2023-04-03T03:21:41;101496.63;;;14.74;55.59
60897;BME280;46749;32.932;-117.130;2023-04-03T03:24:07;101494.06;;;14.75;55.73
60897;BME280;46749;32.932;-117.130;2023-04-03T03:26:35;101504.47;;;14.74;55.31
60897;BME280;46749;32.932;-117.130;2023-04-03T03:29:01;101507.97;;;14.74;55.93
60897;BME280;46749;32.932;-117.130;2023-04-03T03:31:28;101510.59;;;14.74;55.40
60897;BME280;46749;32.932;-117.130;2023-04-03T03:33:54;101514.94;;;14.74;55.53
60897;BME280;46749;32.932;-117.130;2023-04-03T03:36:20;101501.81;;;14.72;55.69
60897;BME280;46749;32.932;-117.130;2023-04-03T03:38:47;101494.88;;;14.73;55.61
60897;BME280;46749;32.932;-117.130;2023-04-03T03:41:13;101498.38;;;14.73;55.60
60897;BME280;46749;32.932;-117.130;2023-04-03T03:43:39;101507.09;;;14.74;55.58
60897;BME280;46749;32.932;-117.130;2023-04-03T03:46:05;101507.94;;;14.73;55.48
60897;BME280;46749;32.932;-117.130;2023-04-03T03:48:32;101508.78;;;14.72;55.78
60897;BME280;46749;32.932;-117.130;2023-04-03T03:50:58;101507.91;;;14.71;55.62
60897;BME280;46749;32.932;-117.130;2023-04-03T03:53:44;101521.84;;;14.72;55.59
60897;BME280;46749;32.932;-117.130;2023-04-03T03:56:11;101522.69;;;14.71;55.29
60897;BME280;46749;32.932;-117.130;2023-04-03T03:58:38;101528.81;;;14.71;55.56
60897;BME280;46749;32.932;-117.130;2023-04-03T04:01:05;101544.50;;;14.71;55.46
60897;BME280;46749;32.932;-117.130;2023-04-03T04:03:32;101540.91;;;14.69;55.54
60897;BME280;46749;32.932;-117.130;2023-04-03T04:05:58;101538.31;;;14.69;55.55
60897;BME280;46749;32.932;-117.130;2023-04-03T04:08:25;101553.16;;;14.70;55.45
60897;BME280;46749;32.932;-117.130;2023-04-03T04:10:51;101540.91;;;14.69;55.46
60897;BME280;46749;32.932;-117.130;2023-04-03T04:13:18;101540.03;;;14.69;55.43
60897;BME280;46749;32.932;-117.130;2023-04-03T04:15:44;101539.16;;;14.68;55.45
60897;BME280;46749;32.932;-117.130;2023-04-03T04:18:11;101531.31;;;14.68;55.96
60897;BME280;46749;32.932;-117.130;2023-04-03T04:20:37;101544.38;;;14.68;55.57
60897;BME280;46749;32.932;-117.130;2023-04-03T04:23:03;101539.16;;;14.68;55.68
60897;BME280;46749;32.932;-117.130;2023-04-03T04:25:30;101548.72;;;14.68;55.36
60897;BME280;46749;32.932;-117.130;2023-04-03T04:27:56;101547.84;;;14.67;55.47
60897;BME280;46749;32.932;-117.130;2023-04-03T04:30:22;101559.19;;;14.68;55.58
60897;BME280;46749;32.932;-117.130;2023-04-03T04:32:48;101553.97;;;14.68;55.56
60897;BME280;46749;32.932;-117.130;2023-04-03T04:35:15;101562.66;;;14.67;55.54
60897;BME280;46749;32.932;-117.130;2023-04-03T04:37:41;101573.09;;;14.67;55.53
60897;BME280;46749;32.932;-117.130;2023-04-03T04:40:08;101560.88;;;14.66;55.36
60897;BME280;46749;32.932;-117.130;2023-04-03T04:42:34;101574.88;;;14.68;55.48
60897;BME280;46749;32.932;-117.130;2023-04-03T04:45:00;101581.78;;;14.66;55.39
60897;BME280;46749;32.932;-117.130;2023-04-03T04:47:28;101581.78;;;14.66;55.54
60897;BME280;46749;32.932;-117.130;2023-04-03T04:49:55;101581.78;;;14.66;55.33
60897;BME280;46749;32.932;-117.130;2023-04-03T04:52:21;101583.50;;;14.65;55.42
60897;BME280;46749;32.932;-117.130;2023-04-03T04:54:47;101593.09;;;14.65;55.58
60897;BME280;46749;32.932;-117.130;2023-04-03T04:57:14;101582.63;;;14.65;55.50
60897;BME280;46749;32.932;-117.130;2023-04-03T04:59:40;101589.56;;;14.64;55.63
60897;BME280;46749;32.932;-117.130;2023-04-03T05:02:06;101589.56;;;14.64;55.50
60897;BME280;46749;32.932;-117.130;2023-04-03T05:04:32;101589.56;;;14.64;55.43
60897;BME280;46749;32.932;-117.130;2023-04-03T05:06:58;101587.78;;;14.63;55.30
60897;BME280;46749;32.932;-117.130;2023-04-03T05:09:25;101589.56;;;14.64;55.50
60897;BME280;46749;32.932;-117.130;2023-04-03T05:11:51;101594.78;;;14.64;55.41
60897;BME280;46749;32.932;-117.130;2023-04-03T05:14:18;101594.78;;;14.64;55.44
60897;BME280;46749;32.932;-117.130;2023-04-03T05:16:44;101586.00;;;14.62;55.46
60897;BME280;46749;32.932;-117.130;2023-04-03T05:19:10;101593.00;;;14.63;55.43
60897;BME280;46749;32.932;-117.130;2023-04-03T05:21:36;101591.25;;;14.62;55.14
60897;BME280;46749;32.932;-117.130;2023-04-03T05:24:03;101600.84;;;14.63;55.52
60897;BME280;46749;32.932;-117.130;2023-04-03T05:26:30;101593.84;;;14.62;55.62
60897;BME280;46749;32.932;-117.130;2023-04-03T05:28:57;101589.47;;;14.61;55.33
60897;BME280;46749;32.932;-117.130;2023-04-03T05:31:23;101581.63;;;14.61;55.44
60897;BME280;46749;32.932;-117.130;2023-04-03T05:33:49;101586.84;;;14.61;55.33
60897;BME280;46749;32.932;-117.130;2023-04-03T05:36:16;101581.63;;;14.61;55.31
60897;BME280;46749;32.932;-117.130;2023-04-03T05:38:42;101583.34;;;14.61;55.46
60897;BME280;46749;32.932;-117.130;2023-04-03T05:41:08;101583.34;;;14.61;55.21
60897;BME280;46749;32.932;-117.130;2023-04-03T05:43:34;101576.34;;;14.60;55.38
60897;BME280;46749;32.932;-117.130;2023-04-03T05:46:03;101577.25;;;14.60;55.33
60897;BME280;46749;32.932;-117.130;2023-04-03T05:48:29;101572.84;;;14.59;55.44
60897;BME280;46749;32.932;-117.130;2023-04-03T05:50:56;101571.97;;;14.59;55.50
60897;BME280;46749;32.932;-117.130;2023-04-03T05:53:27;101563.19;;;14.58;55.49
60897;BME280;46749;32.932;-117.130;2023-04-03T05:55:54;101565.00;;;14.59;55.44
60897;BME280;46749;32.932;-117.130;2023-04-03T05:58:20;101561.44;;;14.57;55.23
60897;BME280;46749;32.932;-117.130;2023-04-03T06:00:47;101563.19;;;14.58;55.49
60897;BME280;46749;32.932;-117.130;2023-04-03T06:03:14;101573.66;;;14.58;55.44
60897;BME280;46749;32.932;-117.130;2023-04-03T06:05:40;101567.53;;;14.57;55.18
60897;BME280;46749;32.932;-117.130;2023-04-03T06:08:07;101570.16;;;14.57;55.46
60897;BME280;46749;32.932;-117.130;2023-04-03T06:10:35;101570.13;;;14.56;55.36
60897;BME280;46749;32.932;-117.130;2023-04-03T06:13:02;101571.88;;;14.57;55.62
60897;BME280;46749;32.932;-117.130;2023-04-03T06:15:28;101567.50;;;14.56;55.25
60897;BME280;46749;32.932;-117.130;2023-04-03T06:17:54;101568.34;;;14.55;55.33
60897;BME280;46749;32.932;-117.130;2023-04-03T06:20:21;101562.22;;;14.54;55.29
60897;BME280;46749;32.932;-117.130;2023-04-03T06:22:48;101567.47;;;14.54;55.32
60897;BME280;46749;32.932;-117.130;2023-04-03T06:25:14;101562.28;;;14.56;55.02
60897;BME280;46749;32.932;-117.130;2023-04-03T06:27:43;101559.56;;;14.53;55.38
60897;BME280;46749;32.932;-117.130;2023-04-03T06:30:09;101564.84;;;14.54;55.12
60897;BME280;46749;32.932;-117.130;2023-04-03T06:32:36;101549.16;;;14.54;55.40
60897;BME280;46749;32.932;-117.130;2023-04-03T06:35:04;101550.88;;;14.54;55.26
60897;BME280;46749;32.932;-117.130;2023-04-03T06:37:30;101547.41;;;14.53;55.27
60897;BME280;46749;32.932;-117.130;2023-04-03T06:39:58;101543.91;;;14.53;55.21
60897;BME280;46749;32.932;-117.130;2023-04-03T06:42:26;101552.56;;;14.52;55.19
60897;BME280;46749;32.932;-117.130;2023-04-03T06:44:52;101557.81;;;14.52;55.34
60897;BME280;46749;32.932;-117.130;2023-04-03T06:47:18;101552.50;;;14.50;55.19
60897;BME280;46749;32.932;-117.130;2023-04-03T06:49:45;101546.44;;;14.51;55.06
60897;BME280;46749;32.932;-117.130;2023-04-03T06:52:11;101536.81;;;14.50;55.41
60897;BME280;46749;32.932;-117.130;2023-04-03T06:54:39;101541.16;;;14.50;55.27
60897;BME280;46749;32.932;-117.130;2023-04-03T06:57:06;101546.38;;;14.50;55.31
60897;BME280;46749;32.932;-117.130;2023-04-03T06:59:33;101538.53;;;14.50;55.26
60897;BME280;46749;32.932;-117.130;2023-04-03T07:01:59;101551.63;;;14.50;55.22
60897;BME280;46749;32.932;-117.130;2023-04-03T07:04:26;101549.84;;;14.49;55.24
60897;BME280;46749;32.932;-117.130;2023-04-03T07:06:52;101556.78;;;14.48;55.30
60897;BME280;46749;32.932;-117.130;2023-04-03T07:09:19;101555.91;;;14.48;55.32
60897;BME280;46749;32.932;-117.130;2023-04-03T07:11:45;101564.59;;;14.47;55.20
60897;BME280;46749;32.932;-117.130;2023-04-03T07:14:11;101556.75;;;14.47;55.20
60897;BME280;46749;32.932;-117.130;2023-04-03T07:16:38;101557.56;;;14.46;55.16
60897;BME280;46749;32.932;-117.130;2023-04-03T07:19:04;101558.47;;;14.46;55.01
60897;BME280;46749;32.932;-117.130;2023-04-03T07:21:30;101563.72;;;14.46;55.16
60897;BME280;46749;32.932;-117.130;2023-04-03T07:23:56;101572.31;;;14.45;54.97
60897;BME280;46749;32.932;-117.130;2023-04-03T07:26:22;101574.06;;;14.45;55.06
60897;BME280;46749;32.932;-117.130;2023-04-03T07:28:49;101567.94;;;14.44;55.43
60897;BME280;46749;32.932;-117.130;2023-04-03T07:31:16;101577.50;;;14.44;55.13
60897;BME280;46749;32.932;-117.130;2023-04-03T07:33:44;101570.50;;;14.43;55.16
60897;BME280;46749;32.932;-117.130;2023-04-03T07:36:16;101577.47;;;14.42;55.26
60897;BME280;46749;32.932;-117.130;2023-04-03T07:38:42;101572.25;;;14.42;55.10
60897;BME280;46749;32.932;-117.130;2023-04-03T07:41:15;101568.75;;;14.42;55.08
60897;BME280;46749;32.932;-117.130;2023-04-03T07:43:43;101567.84;;;14.41;55.03
60897;BME280;46749;32.932;-117.130;2023-04-03T07:46:10;101556.50;;;14.41;55.22
60897;BME280;46749;32.932;-117.130;2023-04-03T07:48:37;101564.34;;;14.41;55.05
60897;BME280;46749;32.932;-117.130;2023-04-03T07:51:04;101558.25;;;14.40;54.92
60897;BME280;46749;32.932;-117.130;2023-04-03T07:53:31;101558.25;;;14.40;55.07
60897;BME280;46749;32.932;-117.130;2023-04-03T07:55:59;101566.00;;;14.39;54.94
60897;BME280;46749;32.932;-117.130;2023-04-03T07:58:25;101567.72;;;14.38;55.17
60897;BME280;46749;32.932;-117.130;2023-04-03T08:00:52;101564.22;;;14.38;55.06
60897;BME280;46749;32.932;-117.130;2023-04-03T08:03:18;101572.91;;;14.37;54.80
60897;BME280;46749;32.932;-117.130;2023-04-03T08:05:46;101574.63;;;14.36;54.83
60897;BME280;46749;32.932;-117.130;2023-04-03T08:08:16;101584.22;;;14.36;55.00
60897;BME280;46749;32.932;-117.130;2023-04-03T08:10:43;101571.13;;;14.36;55.02
60897;BME280;46749;32.932;-117.130;2023-04-03T08:13:09;101588.50;;;14.34;54.98
60897;BME280;46749;32.932;-117.130;2023-04-03T08:15:36;101578.06;;;14.34;54.93
60897;BME280;46749;32.932;-117.130;2023-04-03T08:18:04;101587.63;;;14.33;54.79
60897;BME280;46749;32.932;-117.130;2023-04-03T08:20:30;101565.78;;;14.32;54.71
60897;BME280;46749;32.932;-117.130;2023-04-03T08:22:56;101579.69;;;14.31;54.80
60897;BME280;46749;32.932;-117.130;2023-04-03T08:25:22;101558.78;;;14.31;54.91
60897;BME280;46749;32.932;-117.130;2023-04-03T08:27:49;101565.69;;;14.29;54.82
60897;BME280;46749;32.932;-117.130;2023-04-03T08:30:15;101593.59;;;14.30;54.75
60897;BME280;46749;32.932;-117.130;2023-04-03T08:32:42;101580.50;;;14.29;54.81
60897;BME280;46749;32.932;-117.130;2023-04-03T08:35:10;101595.28;;;14.28;54.94
60897;BME280;46749;32.932;-117.130;2023-04-03T08:37:37;101590.06;;;14.28;55.03
60897;BME280;46749;32.932;-117.130;2023-04-03T08:40:07;101588.28;;;14.27;54.92
60897;BME280;46749;32.932;-117.130;2023-04-03T08:48:30;101595.16;;;14.25;54.74
60897;BME280;46749;32.932;-117.130;2023-04-03T08:51:00;101592.56;;;14.25;54.62
60897;BME280;46749;32.932;-117.130;2023-04-03T08:53:33;101596.84;;;14.23;54.50
60897;BME280;46749;32.932;-117.130;2023-04-03T08:56:07;101585.50;;;14.23;54.65
60897;BME280;46749;32.932;-117.130;2023-04-03T08:59:00;101584.63;;;14.22;54.64
60897;BME280;46749;32.932;-117.130;2023-04-03T09:01:34;101587.22;;;14.22;54.58
60897;BME280;46749;32.932;-117.130;2023-04-03T09:04:03;101585.47;;;14.21;54.59
60897;BME280;46749;32.932;-117.130;2023-04-03T09:06:32;101608.00;;;14.19;54.44
60897;BME280;46749;32.932;-117.130;2023-04-03T09:09:27;101576.66;;;14.19;54.62
60897;BME280;46749;32.932;-117.130;2023-04-03T09:12:12;101590.59;;;14.20;54.35
60897;BME280;46749;32.932;-117.130;2023-04-03T09:14:53;101585.34;;;14.18;54.51
60897;BME280;46749;32.932;-117.130;2023-04-03T09:20:22;101566.13;;;14.16;54.52
60897;BME280;46749;32.932;-117.130;2023-04-03T09:22:52;101595.75;;;14.17;54.31
60897;BME280;46749;32.932;-117.130;2023-04-03T09:25:33;101587.84;;;14.15;54.30
60897;BME280;46749;32.932;-117.130;2023-04-03T09:28:04;101590.47;;;14.15;54.69
60897;BME280;46749;32.932;-117.130;2023-04-03T09:30:35;101594.72;;;14.13;54.26
60897;BME280;46749;32.932;-117.130;2023-04-03T09:33:03;101593.84;;;14.13;54.37
60897;BME280;46749;32.932;-117.130;2023-04-03T09:35:33;101576.41;;;14.12;54.51
60897;BME280;46749;32.932;-117.130;2023-04-03T09:38:14;101577.28;;;14.12;54.23
60897;BME280;46749;32.932;-117.130;2023-04-03T09:40:46;101574.66;;;14.12;54.20
60897;BME280;46749;32.932;-117.130;2023-04-03T09:43:29;101569.41;;;14.11;54.28
60897;BME280;46749;32.932;-117.130;2023-04-03T09:46:15;101592.84;;;14.09;54.53
60897;BME280;46749;32.932;-117.130;2023-04-03T09:48:52;101559.78;;;14.10;54.33
60897;BME280;46749;32.932;-117.130;2023-04-03T09:51:18;101564.16;;;14.11;54.21
60897;BME280;46749;32.932;-117.130;2023-04-03T09:53:45;101577.19;;;14.09;54.26
60897;BME280;46749;32.932;-117.130;2023-04-03T09:59:08;101570.06;;;14.05;54.37
60897;BME280;46749;32.932;-117.130;2023-04-03T10:01:42;101572.69;;;14.05;54.07
60897;BME280;46749;32.932;-117.130;2023-04-03T10:04:17;101575.28;;;14.05;54.39
60897;BME280;46749;32.932;-117.130;2023-04-03T10:06:46;101583.97;;;14.04;54.00
60897;BME280;46749;32.932;-117.130;2023-04-03T10:09:20;101572.59;;;14.02;53.92
60897;BME280;46749;32.932;-117.130;2023-04-03T10:12:06;101578.63;;;14.01;53.66
60897;BME280;46749;32.932;-117.130;2023-04-03T10:20:12;101564.63;;;13.99;53.78
60897;BME280;46749;32.932;-117.130;2023-04-03T10:25:48;101595.97;;;13.99;53.94
60897;BME280;46749;32.932;-117.130;2023-04-03T10:31:15;101586.31;;;13.96;53.72
60897;BME280;46749;32.932;-117.130;2023-04-03T10:34:05;101574.97;;;13.96;53.84
60897;BME280;46749;32.932;-117.130;2023-04-03T10:37:01;101574.97;;;13.96;53.91
60897;BME280;46749;32.932;-117.130;2023-04-03T10:52:46;101566.06;;;13.91;53.65
60897;BME280;46749;32.932;-117.130;2023-04-03T10:57:58;101566.91;;;13.90;53.70
60897;BME280;46749;32.932;-117.130;2023-04-03T11:00:47;101572.00;;;13.87;53.56
60897;BME280;46749;32.932;-117.130;2023-04-03T11:05:53;101531.97;;;13.86;53.67
60897;BME280;46749;32.932;-117.130;2023-04-03T11:11:06;101537.13;;;13.85;53.58
60897;BME280;46749;32.932;-117.130;2023-04-03T11:13:41;101556.25;;;13.84;53.59
60897;BME280;46749;32.932;-117.130;2023-04-03T11:16:14;101539.69;;;13.83;53.37
60897;BME280;46749;32.932;-117.130;2023-04-03T11:18:59;101536.16;;;13.83;53.35
60897;BME280;46749;32.932;-117.130;2023-04-03T11:21:33;101535.28;;;13.82;53.60
60897;BME280;46749;32.932;-117.130;2023-04-03T11:24:05;101532.63;;;13.81;53.45
60897;BME280;46749;32.932;-117.130;2023-04-03T11:26:38;101543.91;;;13.80;53.42
60897;BME280;46749;32.932;-117.130;2023-04-03T11:29:19;101515.19;;;13.80;53.36
60897;BME280;46749;32.932;-117.130;2023-04-03T11:34:53;101498.59;;;13.77;53.31
60897;BME280;46749;32.932;-117.130;2023-04-03T11:37:35;101511.66;;;13.77;53.31
60897;BME280;46749;32.932;-117.130;2023-04-03T11:40:29;101513.28;;;13.75;53.19
60897;BME280;46749;32.932;-117.130;2023-04-03T11:45:35;101518.50;;;13.75;53.12
60897;BME280;46749;32.932;-117.130;2023-04-03T11:50:58;101511.50;;;13.74;53.47
60897;BME280;46749;32.932;-117.130;2023-04-03T11:53:38;101518.41;;;13.72;53.07
60897;BME280;46749;32.932;-117.130;2023-04-03T12:04:21;101527.00;;;13.70;53.15
60897;BME280;46749;32.932;-117.130;2023-04-03T12:12:32;101544.34;;;13.68;52.95
60897;BME280;46749;32.932;-117.130;2023-04-03T12:26:43;101560.72;;;13.64;52.75
60897;BME280;46749;32.932;-117.130;2023-04-03T12:29:35;101565.84;;;13.61;52.59
60897;BME280;46749;32.932;-117.130;2023-04-03T12:40:34;101584.00;;;13.58;52.45
60897;BME280;46749;32.932;-117.130;2023-04-03T12:43:57;101598.75;;;13.57;52.36
60897;BME280;46749;32.932;-117.130;2023-04-03T12:48:50;101596.91;;;13.55;52.20
60897;BME280;46749;32.932;-117.130;2023-04-03T12:51:26;101595.16;;;13.54;52.16
60897;BME280;46749;32.932;-117.130;2023-04-03T12:54:01;101588.16;;;13.53;52.15
60897;BME280;46749;32.932;-117.130;2023-04-03T12:56:30;101617.69;;;13.52;52.22
60897;BME280;46749;32.932;-117.130;2023-04-03T12:59:17;101608.06;;;13.50;52.01
60897;BME280;46749;32.932;-117.130;2023-04-03T13:01:52;101597.56;;;13.49;52.19
60897;BME280;46749;32.932;-117.130;2023-04-03T13:04:19;101572.38;;;13.49;52.19
60897;BME280;46749;32.932;-117.130;2023-04-03T13:06:45;101593.19;;;13.48;52.30
60897;BME280;46749;32.932;-117.130;2023-04-03T13:09:29;101576.66;;;13.47;52.28
60897;BME280;46749;32.932;-117.130;2023-04-03T13:12:16;101599.25;;;13.47;52.15
60897;BME280;46749;32.932;-117.130;2023-04-03T13:14:56;101616.63;;;13.46;51.95
60897;BME280;46749;32.932;-117.130;2023-04-03T13:17:24;101619.16;;;13.45;51.69
60897;BME280;46749;32.932;-117.130;2023-04-03T13:19:53;101607.78;;;13.43;51.55
60897;BME280;46749;32.932;-117.130;2023-04-03T13:24:47;101619.88;;;13.41;51.87
60897;BME280;46749;32.932;-117.130;2023-04-03T13:27:15;101614.66;;;13.41;51.81
60897;BME280;46749;32.932;-117.130;2023-04-03T13:29:41;101619.88;;;13.41;51.73
60897;BME280;46749;32.932;-117.130;2023-04-03T13:32:18;101626.78;;;13.39;51.89
60897;BME280;46749;32.932;-117.130;2023-04-03T13:34:46;101636.28;;;13.38;51.90
60897;BME280;46749;32.932;-117.130;2023-04-03T13:37:29;101662.38;;;13.38;51.95
60897;BME280;46749;32.932;-117.130;2023-04-03T13:40:10;101638.84;;;13.37;51.58
60897;BME280;46749;32.932;-117.130;2023-04-03T13:42:39;101648.41;;;13.36;51.69
60897;BME280;46749;32.932;-117.130;2023-04-03T13:45:16;101644.91;;;13.36;51.68
60897;BME280;46749;32.932;-117.130;2023-04-03T13:47:45;101644.00;;;13.35;51.81
60897;BME280;46749;32.932;-117.130;2023-04-03T13:50:14;101645.69;;;13.33;51.88
60897;BME280;46749;32.932;-117.130;2023-04-03T13:55:26;101642.19;;;13.33;51.64
60897;BME280;46749;32.932;-117.130;2023-04-03T13:58:16;101662.13;;;13.32;51.65
60897;BME280;46749;32.932;-117.130;2023-04-03T14:00:51;101649.03;;;13.31;51.86
60897;BME280;46749;32.932;-117.130;2023-04-03T14:03:31;101642.94;;;13.30;51.90
60897;BME280;46749;32.932;-117.130;2023-04-03T14:05:58;101627.28;;;13.30;51.90
60897;BME280;46749;32.932;-117.130;2023-04-03T14:08:26;101642.03;;;13.30;51.80
60897;BME280;46749;32.932;-117.130;2023-04-03T14:10:53;101627.22;;;13.29;51.66